sensor_id;sensor_type;location;lat;lon;timestamp;temperature;humidity
24678;DHT22;12800;53.094;8.778;2022-12-10T00:01:09;3.50;84.00
24678;DHT22;12800;53.094;8.778;2022-12-10T00:03:35;3.40;84.00
24678;DHT22;12800;53.094;8.778;2022-12-10T00:06:03;3.40;84.00
24678;DHT22;12800;53.094;8.778;2022-12-10T00:08:29;3.40;84.10
24678;DHT22;12800;53.094;8.778;2022-12-10T00:10:55;3.40;84.10
24678;DHT22;12800;53.094;8.778;2022-12-10T00:13:21;3.40;84.00
24678;DHT22;12800;53.094;8.778;2022-12-10T00:15:46;3.40;84.10
24678;DHT22;12800;53.094;8.778;2022-12-10T00:18:12;3.40;84.00
24678;DHT22;12800;53.094;8.778;2022-12-10T00:20:38;3.30;84.10
24678;DHT22;12800;53.094;8.778;2022-12-10T00:23:03;3.40;84.30
24678;DHT22;12800;53.094;8.778;2022-12-10T00:25:29;3.40;84.20
24678;DHT22;12800;53.094;8.778;2022-12-10T00:27:55;3.30;84.10
24678;DHT22;12800;53.094;8.778;2022-12-10T00:30:21;3.30;83.90
24678;DHT22;12800;53.094;8.778;2022-12-10T00:32:46;3.30;84.10
24678;DHT22;12800;53.094;8.778;2022-12-10T00:35:12;3.30;84.20
24678;DHT22;12800;53.094;8.778;2022-12-10T00:37:37;3.30;84.30
24678;DHT22;12800;53.094;8.778;2022-12-10T00:40:03;3.30;84.30
24678;DHT22;12800;53.094;8.778;2022-12-10T00:42:30;3.40;84.20
24678;DHT22;12800;53.094;8.778;2022-12-10T00:44:55;3.30;84.00
24678;DHT22;12800;53.094;8.778;2022-12-10T00:47:21;3.30;84.00
24678;DHT22;12800;53.094;8.778;2022-12-10T00:49:46;3.30;83.90
24678;DHT22;12800;53.094;8.778;2022-12-10T00:52:12;3.30;84.00
24678;DHT22;12800;53.094;8.778;2022-12-10T00:54:38;3.20;84.10
24678;DHT22;12800;53.094;8.778;2022-12-10T00:57:03;3.30;84.20
24678;DHT22;12800;53.094;8.778;2022-12-10T00:59:29;3.30;84.20
24678;DHT22;12800;53.094;8.778;2022-12-10T01:01:54;3.20;84.10
24678;DHT22;12800;53.094;8.778;2022-12-10T01:04:20;3.30;84.20
24678;DHT22;12800;53.094;8.778;2022-12-10T01:06:49;3.30;84.20
24678;DHT22;12800;53.094;8.778;2022-12-10T01:09:17;3.30;84.20
24678;DHT22;12800;53.094;8.778;2022-12-10T01:11:44;3.30;84.80
24678;DHT22;12800;53.094;8.778;2022-12-10T01:14:12;3.30;83.80
24678;DHT22;12800;53.094;8.778;2022-12-10T01:16:38;3.30;83.90
24678;DHT22;12800;53.094;8.778;2022-12-10T01:19:04;3.30;83.80
24678;DHT22;12800;53.094;8.778;2022-12-10T01:21:30;3.30;83.80
24678;DHT22;12800;53.094;8.778;2022-12-10T01:23:57;3.30;84.00
24678;DHT22;12800;53.094;8.778;2022-12-10T01:26:29;3.40;83.80
24678;DHT22;12800;53.094;8.778;2022-12-10T01:28:54;3.40;83.60
24678;DHT22;12800;53.094;8.778;2022-12-10T01:31:26;3.40;83.60
24678;DHT22;12800;53.094;8.778;2022-12-10T01:33:52;3.40;83.60
24678;DHT22;12800;53.094;8.778;2022-12-10T01:36:21;3.40;83.40
24678;DHT22;12800;53.094;8.778;2022-12-10T01:38:48;3.40;83.40
24678;DHT22;12800;53.094;8.778;2022-12-10T01:41:20;3.40;83.20
24678;DHT22;12800;53.094;8.778;2022-12-10T01:43:59;3.40;83.30
24678;DHT22;12800;53.094;8.778;2022-12-10T01:46:34;3.40;83.30
24678;DHT22;12800;53.094;8.778;2022-12-10T01:49:02;3.40;83.10
24678;DHT22;12800;53.094;8.778;2022-12-10T01:51:30;3.40;83.00
24678;DHT22;12800;53.094;8.778;2022-12-10T01:53:56;3.40;83.10
24678;DHT22;12800;53.094;8.778;2022-12-10T01:56:22;3.40;83.20
24678;DHT22;12800;53.094;8.778;2022-12-10T01:58:54;3.30;83.00
24678;DHT22;12800;53.094;8.778;2022-12-10T02:09:39;3.30;83.30
24678;DHT22;12800;53.094;8.778;2022-12-10T02:15:10;3.40;83.40
24678;DHT22;12800;53.094;8.778;2022-12-10T02:17:43;3.40;83.40
24678;DHT22;12800;53.094;8.778;2022-12-10T02:20:21;3.50;83.40
24678;DHT22;12800;53.094;8.778;2022-12-10T02:22:56;3.50;83.20
24678;DHT22;12800;53.094;8.778;2022-12-10T02:25:29;3.50;83.10
24678;DHT22;12800;53.094;8.778;2022-12-10T02:31:04;3.60;83.10
24678;DHT22;12800;53.094;8.778;2022-12-10T02:33:31;3.60;82.90
24678;DHT22;12800;53.094;8.778;2022-12-10T02:35:57;3.60;83.00
24678;DHT22;12800;53.094;8.778;2022-12-10T02:38:30;3.60;83.60
24678;DHT22;12800;53.094;8.778;2022-12-10T02:41:06;3.60;82.60
24678;DHT22;12800;53.094;8.778;2022-12-10T02:43:34;3.60;82.40
24678;DHT22;12800;53.094;8.778;2022-12-10T02:46:02;3.60;82.20
24678;DHT22;12800;53.094;8.778;2022-12-10T02:48:28;3.60;82.20
24678;DHT22;12800;53.094;8.778;2022-12-10T02:50:55;3.50;81.80
24678;DHT22;12800;53.094;8.778;2022-12-10T02:53:20;3.50;81.80
24678;DHT22;12800;53.094;8.778;2022-12-10T02:59:18;3.50;81.70
24678;DHT22;12800;53.094;8.778;2022-12-10T03:04:16;3.50;81.80
24678;DHT22;12800;53.094;8.778;2022-12-10T03:06:52;3.50;81.60
24678;DHT22;12800;53.094;8.778;2022-12-10T03:09:21;3.50;81.60
24678;DHT22;12800;53.094;8.778;2022-12-10T03:11:49;3.60;81.70
24678;DHT22;12800;53.094;8.778;2022-12-10T03:14:28;3.60;81.50
24678;DHT22;12800;53.094;8.778;2022-12-10T03:17:00;3.60;81.40
24678;DHT22;12800;53.094;8.778;2022-12-10T03:19:52;3.60;81.40
24678;DHT22;12800;53.094;8.778;2022-12-10T03:22:19;3.60;81.30
24678;DHT22;12800;53.094;8.778;2022-12-10T03:24:45;3.60;81.10
24678;DHT22;12800;53.094;8.778;2022-12-10T03:27:13;3.60;80.90
24678;DHT22;12800;53.094;8.778;2022-12-10T03:29:45;3.60;80.70
24678;DHT22;12800;53.094;8.778;2022-12-10T03:32:11;3.60;80.60
24678;DHT22;12800;53.094;8.778;2022-12-10T03:34:38;3.70;80.50
24678;DHT22;12800;53.094;8.778;2022-12-10T03:37:05;3.70;80.40
24678;DHT22;12800;53.094;8.778;2022-12-10T03:39:31;3.70;80.30
24678;DHT22;12800;53.094;8.778;2022-12-10T03:41:57;3.70;80.20
24678;DHT22;12800;53.094;8.778;2022-12-10T03:44:31;3.70;80.20
24678;DHT22;12800;53.094;8.778;2022-12-10T03:46:57;3.70;80.20
24678;DHT22;12800;53.094;8.778;2022-12-10T03:49:23;3.70;80.20
24678;DHT22;12800;53.094;8.778;2022-12-10T03:51:48;3.70;80.10
24678;DHT22;12800;53.094;8.778;2022-12-10T03:54:14;3.70;80.10
24678;DHT22;12800;53.094;8.778;2022-12-10T03:56:39;3.70;80.00
24678;DHT22;12800;53.094;8.778;2022-12-10T03:59:05;3.70;79.80
24678;DHT22;12800;53.094;8.778;2022-12-10T04:01:31;3.70;79.50
24678;DHT22;12800;53.094;8.778;2022-12-10T04:03:56;3.70;79.20
24678;DHT22;12800;53.094;8.778;2022-12-10T04:06:22;3.70;79.10
24678;DHT22;12800;53.094;8.778;2022-12-10T04:08:48;3.70;79.20
24678;DHT22;12800;53.094;8.778;2022-12-10T04:11:14;3.70;79.30
24678;DHT22;12800;53.094;8.778;2022-12-10T04:13:41;3.70;79.30
24678;DHT22;12800;53.094;8.778;2022-12-10T04:16:26;3.70;79.20
24678;DHT22;12800;53.094;8.778;2022-12-10T04:19:11;3.70;79.40
24678;DHT22;12800;53.094;8.778;2022-12-10T04:21:38;3.70;79.50
24678;DHT22;12800;53.094;8.778;2022-12-10T04:24:25;3.70;79.50
24678;DHT22;12800;53.094;8.778;2022-12-10T04:27:18;3.70;79.30
24678;DHT22;12800;53.094;8.778;2022-12-10T04:29:44;3.60;79.30
24678;DHT22;12800;53.094;8.778;2022-12-10T04:32:09;3.60;79.30
24678;DHT22;12800;53.094;8.778;2022-12-10T04:34:35;3.60;79.40
24678;DHT22;12800;53.094;8.778;2022-12-10T04:37:02;3.60;79.50
24678;DHT22;12800;53.094;8.778;2022-12-10T04:39:28;3.60;79.30
24678;DHT22;12800;53.094;8.778;2022-12-10T04:41:54;3.60;79.10
24678;DHT22;12800;53.094;8.778;2022-12-10T04:44:19;3.60;78.90
24678;DHT22;12800;53.094;8.778;2022-12-10T04:46:46;3.60;78.80
24678;DHT22;12800;53.094;8.778;2022-12-10T04:49:12;3.60;78.60
24678;DHT22;12800;53.094;8.778;2022-12-10T04:51:38;3.60;78.10
24678;DHT22;12800;53.094;8.778;2022-12-10T04:54:05;3.70;77.90
24678;DHT22;12800;53.094;8.778;2022-12-10T04:56:31;3.70;77.60
24678;DHT22;12800;53.094;8.778;2022-12-10T04:58:57;3.70;77.80
24678;DHT22;12800;53.094;8.778;2022-12-10T05:01:23;3.70;77.70
24678;DHT22;12800;53.094;8.778;2022-12-10T05:03:49;3.60;77.40
24678;DHT22;12800;53.094;8.778;2022-12-10T05:06:16;3.60;77.30
24678;DHT22;12800;53.094;8.778;2022-12-10T05:08:42;3.60;77.20
24678;DHT22;12800;53.094;8.778;2022-12-10T05:11:14;3.60;77.20
24678;DHT22;12800;53.094;8.778;2022-12-10T05:13:40;3.60;77.40
24678;DHT22;12800;53.094;8.778;2022-12-10T05:16:08;3.60;77.40
24678;DHT22;12800;53.094;8.778;2022-12-10T05:18:34;3.60;77.40
24678;DHT22;12800;53.094;8.778;2022-12-10T05:21:02;3.60;77.40
24678;DHT22;12800;53.094;8.778;2022-12-10T05:23:28;3.60;77.30
24678;DHT22;12800;53.094;8.778;2022-12-10T05:28:30;3.50;77.50
24678;DHT22;12800;53.094;8.778;2022-12-10T05:30:56;3.50;77.30
24678;DHT22;12800;53.094;8.778;2022-12-10T05:33:22;3.50;77.40
24678;DHT22;12800;53.094;8.778;2022-12-10T05:35:57;3.50;77.10
24678;DHT22;12800;53.094;8.778;2022-12-10T05:38:23;3.50;76.70
24678;DHT22;12800;53.094;8.778;2022-12-10T05:40:49;3.50;76.70
24678;DHT22;12800;53.094;8.778;2022-12-10T05:43:15;3.50;76.80
24678;DHT22;12800;53.094;8.778;2022-12-10T05:45:41;3.50;76.80
24678;DHT22;12800;53.094;8.778;2022-12-10T05:48:08;3.50;76.70
24678;DHT22;12800;53.094;8.778;2022-12-10T05:50:33;3.50;76.60
24678;DHT22;12800;53.094;8.778;2022-12-10T05:52:59;3.50;76.50
24678;DHT22;12800;53.094;8.778;2022-12-10T05:55:24;3.50;76.30
24678;DHT22;12800;53.094;8.778;2022-12-10T05:57:52;3.50;76.20
24678;DHT22;12800;53.094;8.778;2022-12-10T06:00:17;3.40;76.30
24678;DHT22;12800;53.094;8.778;2022-12-10T06:02:43;3.40;76.40
24678;DHT22;12800;53.094;8.778;2022-12-10T06:05:08;3.50;76.70
24678;DHT22;12800;53.094;8.778;2022-12-10T06:07:35;3.50;76.60
24678;DHT22;12800;53.094;8.778;2022-12-10T06:10:00;3.50;76.70
24678;DHT22;12800;53.094;8.778;2022-12-10T06:12:26;3.50;76.70
24678;DHT22;12800;53.094;8.778;2022-12-10T06:14:51;3.50;76.80
24678;DHT22;12800;53.094;8.778;2022-12-10T06:17:17;3.50;77.00
24678;DHT22;12800;53.094;8.778;2022-12-10T06:19:43;3.50;77.20
24678;DHT22;12800;53.094;8.778;2022-12-10T06:22:08;3.50;77.10
24678;DHT22;12800;53.094;8.778;2022-12-10T06:24:34;3.50;76.70
24678;DHT22;12800;53.094;8.778;2022-12-10T06:26:59;3.50;76.60
24678;DHT22;12800;53.094;8.778;2022-12-10T06:29:25;3.50;76.60
24678;DHT22;12800;53.094;8.778;2022-12-10T06:31:51;3.50;76.50
24678;DHT22;12800;53.094;8.778;2022-12-10T06:34:16;3.50;76.60
24678;DHT22;12800;53.094;8.778;2022-12-10T06:36:42;3.60;76.40
24678;DHT22;12800;53.094;8.778;2022-12-10T06:39:07;3.60;76.30
24678;DHT22;12800;53.094;8.778;2022-12-10T06:41:33;3.60;76.30
24678;DHT22;12800;53.094;8.778;2022-12-10T06:43:58;3.50;76.50
24678;DHT22;12800;53.094;8.778;2022-12-10T06:46:25;3.50;76.60
24678;DHT22;12800;53.094;8.778;2022-12-10T06:48:52;3.50;76.70
24678;DHT22;12800;53.094;8.778;2022-12-10T06:51:18;3.50;76.90
24678;DHT22;12800;53.094;8.778;2022-12-10T06:53:44;3.50;77.50
24678;DHT22;12800;53.094;8.778;2022-12-10T06:56:15;3.60;76.40
24678;DHT22;12800;53.094;8.778;2022-12-10T06:58:42;3.60;76.40
24678;DHT22;12800;53.094;8.778;2022-12-10T07:01:14;3.60;76.40
24678;DHT22;12800;53.094;8.778;2022-12-10T07:03:41;3.60;76.50
24678;DHT22;12800;53.094;8.778;2022-12-10T07:06:07;3.60;76.70
24678;DHT22;12800;53.094;8.778;2022-12-10T07:08:34;3.60;76.10
24678;DHT22;12800;53.094;8.778;2022-12-10T07:11:03;3.60;75.70
24678;DHT22;12800;53.094;8.778;2022-12-10T07:13:29;3.60;75.80
24678;DHT22;12800;53.094;8.778;2022-12-10T07:15:55;3.60;76.00
24678;DHT22;12800;53.094;8.778;2022-12-10T07:18:20;3.60;76.20
24678;DHT22;12800;53.094;8.778;2022-12-10T07:20:46;3.60;77.50
24678;DHT22;12800;53.094;8.778;2022-12-10T07:23:11;3.60;77.30
24678;DHT22;12800;53.094;8.778;2022-12-10T07:25:37;3.60;77.80
24678;DHT22;12800;53.094;8.778;2022-12-10T07:28:02;3.60;78.10
24678;DHT22;12800;53.094;8.778;2022-12-10T07:30:28;3.60;78.30
24678;DHT22;12800;53.094;8.778;2022-12-10T07:32:54;3.60;78.30
24678;DHT22;12800;53.094;8.778;2022-12-10T07:35:19;3.60;78.50
24678;DHT22;12800;53.094;8.778;2022-12-10T07:37:45;3.60;78.40
24678;DHT22;12800;53.094;8.778;2022-12-10T07:40:11;3.50;78.30
24678;DHT22;12800;53.094;8.778;2022-12-10T07:42:36;3.50;78.40
24678;DHT22;12800;53.094;8.778;2022-12-10T07:45:02;3.50;78.30
24678;DHT22;12800;53.094;8.778;2022-12-10T07:47:28;3.50;78.10
24678;DHT22;12800;53.094;8.778;2022-12-10T07:49:54;3.50;78.20
24678;DHT22;12800;53.094;8.778;2022-12-10T07:52:19;3.60;78.50
24678;DHT22;12800;53.094;8.778;2022-12-10T07:54:45;3.60;78.70
24678;DHT22;12800;53.094;8.778;2022-12-10T07:57:11;3.60;78.60
24678;DHT22;12800;53.094;8.778;2022-12-10T07:59:37;3.60;78.70
24678;DHT22;12800;53.094;8.778;2022-12-10T08:02:02;3.60;79.60
24678;DHT22;12800;53.094;8.778;2022-12-10T08:04:29;3.60;78.90
24678;DHT22;12800;53.094;8.778;2022-12-10T08:06:57;3.60;78.80
24678;DHT22;12800;53.094;8.778;2022-12-10T08:09:23;3.60;78.90
24678;DHT22;12800;53.094;8.778;2022-12-10T08:11:49;3.60;79.10
24678;DHT22;12800;53.094;8.778;2022-12-10T08:14:14;3.60;79.20
24678;DHT22;12800;53.094;8.778;2022-12-10T08:16:40;3.60;79.30
24678;DHT22;12800;53.094;8.778;2022-12-10T08:19:05;3.60;79.30
24678;DHT22;12800;53.094;8.778;2022-12-10T08:21:32;3.70;79.30
24678;DHT22;12800;53.094;8.778;2022-12-10T08:23:58;3.70;79.20
24678;DHT22;12800;53.094;8.778;2022-12-10T08:26:26;3.60;79.20
24678;DHT22;12800;53.094;8.778;2022-12-10T08:28:53;3.60;79.40
24678;DHT22;12800;53.094;8.778;2022-12-10T08:31:20;3.60;79.40
24678;DHT22;12800;53.094;8.778;2022-12-10T08:33:46;3.60;79.20
24678;DHT22;12800;53.094;8.778;2022-12-10T08:36:14;3.60;79.40
24678;DHT22;12800;53.094;8.778;2022-12-10T08:38:40;3.60;79.40
24678;DHT22;12800;53.094;8.778;2022-12-10T08:41:11;3.70;79.50
24678;DHT22;12800;53.094;8.778;2022-12-10T08:43:38;3.70;79.50
24678;DHT22;12800;53.094;8.778;2022-12-10T08:46:04;3.70;79.60
24678;DHT22;12800;53.094;8.778;2022-12-10T08:48:30;3.70;79.50
24678;DHT22;12800;53.094;8.778;2022-12-10T08:50:56;3.70;79.60
24678;DHT22;12800;53.094;8.778;2022-12-10T08:53:22;3.70;79.70
24678;DHT22;12800;53.094;8.778;2022-12-10T08:55:51;3.80;79.70
24678;DHT22;12800;53.094;8.778;2022-12-10T08:58:17;3.80;79.60
24678;DHT22;12800;53.094;8.778;2022-12-10T09:00:42;3.80;79.60
24678;DHT22;12800;53.094;8.778;2022-12-10T09:03:09;3.80;79.40
24678;DHT22;12800;53.094;8.778;2022-12-10T09:05:35;3.80;79.20
24678;DHT22;12800;53.094;8.778;2022-12-10T09:08:01;3.80;79.00
24678;DHT22;12800;53.094;8.778;2022-12-10T09:10:26;3.80;79.00
24678;DHT22;12800;53.094;8.778;2022-12-10T09:12:52;3.80;79.10
24678;DHT22;12800;53.094;8.778;2022-12-10T09:15:18;3.70;78.80
24678;DHT22;12800;53.094;8.778;2022-12-10T09:17:44;3.70;78.80
24678;DHT22;12800;53.094;8.778;2022-12-10T09:20:09;3.70;78.70
24678;DHT22;12800;53.094;8.778;2022-12-10T09:22:35;3.70;78.50
24678;DHT22;12800;53.094;8.778;2022-12-10T09:25:06;3.70;78.40
24678;DHT22;12800;53.094;8.778;2022-12-10T09:27:32;3.70;78.00
24678;DHT22;12800;53.094;8.778;2022-12-10T09:29:58;3.70;77.60
24678;DHT22;12800;53.094;8.778;2022-12-10T09:32:23;3.70;77.50
24678;DHT22;12800;53.094;8.778;2022-12-10T09:34:53;3.70;77.30
24678;DHT22;12800;53.094;8.778;2022-12-10T09:37:19;3.80;77.20
24678;DHT22;12800;53.094;8.778;2022-12-10T09:39:45;3.80;76.80
24678;DHT22;12800;53.094;8.778;2022-12-10T09:45:32;3.90;76.50
24678;DHT22;12800;53.094;8.778;2022-12-10T09:50:55;4.00;76.00
24678;DHT22;12800;53.094;8.778;2022-12-10T09:53:27;4.00;76.40
24678;DHT22;12800;53.094;8.778;2022-12-10T09:55:55;4.10;75.50
24678;DHT22;12800;53.094;8.778;2022-12-10T09:58:24;4.10;75.40
24678;DHT22;12800;53.094;8.778;2022-12-10T10:00:56;4.10;75.50
24678;DHT22;12800;53.094;8.778;2022-12-10T10:03:22;4.10;75.30
24678;DHT22;12800;53.094;8.778;2022-12-10T10:05:52;4.10;74.90
24678;DHT22;12800;53.094;8.778;2022-12-10T10:10:47;4.20;74.60
24678;DHT22;12800;53.094;8.778;2022-12-10T10:13:36;4.20;74.60
24678;DHT22;12800;53.094;8.778;2022-12-10T10:16:25;4.20;74.30
24678;DHT22;12800;53.094;8.778;2022-12-10T10:19:00;4.30;74.00
24678;DHT22;12800;53.094;8.778;2022-12-10T10:21:42;4.30;73.80
24678;DHT22;12800;53.094;8.778;2022-12-10T10:24:21;4.30;73.70
24678;DHT22;12800;53.094;8.778;2022-12-10T10:26:47;4.30;73.70
24678;DHT22;12800;53.094;8.778;2022-12-10T10:29:17;4.30;74.60
24678;DHT22;12800;53.094;8.778;2022-12-10T10:31:44;4.30;73.70
24678;DHT22;12800;53.094;8.778;2022-12-10T10:34:22;4.30;73.50
24678;DHT22;12800;53.094;8.778;2022-12-10T10:36:56;4.30;73.70
24678;DHT22;12800;53.094;8.778;2022-12-10T10:39:30;4.30;73.50
24678;DHT22;12800;53.094;8.778;2022-12-10T10:41:58;4.40;73.50
24678;DHT22;12800;53.094;8.778;2022-12-10T10:44:28;4.40;73.30
24678;DHT22;12800;53.094;8.778;2022-12-10T10:46:58;4.40;73.00
24678;DHT22;12800;53.094;8.778;2022-12-10T10:49:29;4.40;72.90
24678;DHT22;12800;53.094;8.778;2022-12-10T10:52:12;4.50;72.70
24678;DHT22;12800;53.094;8.778;2022-12-10T10:54:43;4.50;72.00
24678;DHT22;12800;53.094;8.778;2022-12-10T10:59:56;4.60;71.70
24678;DHT22;12800;53.094;8.778;2022-12-10T11:02:30;4.70;71.60
24678;DHT22;12800;53.094;8.778;2022-12-10T11:05:20;4.70;71.40
24678;DHT22;12800;53.094;8.778;2022-12-10T11:08:00;4.70;71.40
24678;DHT22;12800;53.094;8.778;2022-12-10T11:10:27;4.70;70.80
24678;DHT22;12800;53.094;8.778;2022-12-10T11:13:05;4.70;70.40
24678;DHT22;12800;53.094;8.778;2022-12-10T11:15:34;4.70;70.20
24678;DHT22;12800;53.094;8.778;2022-12-10T11:18:01;4.70;70.10
24678;DHT22;12800;53.094;8.778;2022-12-10T11:20:31;4.70;70.20
24678;DHT22;12800;53.094;8.778;2022-12-10T11:23:01;4.70;70.00
24678;DHT22;12800;53.094;8.778;2022-12-10T11:25:57;4.70;70.00
24678;DHT22;12800;53.094;8.778;2022-12-10T11:33:54;4.80;69.70
24678;DHT22;12800;53.094;8.778;2022-12-10T11:36:39;4.80;69.40
24678;DHT22;12800;53.094;8.778;2022-12-10T11:48:00;4.80;68.80
24678;DHT22;12800;53.094;8.778;2022-12-10T11:50:53;4.70;68.80
24678;DHT22;12800;53.094;8.778;2022-12-10T11:56:28;4.70;68.90
24678;DHT22;12800;53.094;8.778;2022-12-10T12:09:30;4.70;69.20
24678;DHT22;12800;53.094;8.778;2022-12-10T12:14:48;4.70;69.20
24678;DHT22;12800;53.094;8.778;2022-12-10T12:17:19;4.70;69.30
24678;DHT22;12800;53.094;8.778;2022-12-10T12:19:53;4.70;69.30
24678;DHT22;12800;53.094;8.778;2022-12-10T12:24:49;4.70;69.40
24678;DHT22;12800;53.094;8.778;2022-12-10T12:30:10;4.70;69.40
24678;DHT22;12800;53.094;8.778;2022-12-10T12:35:14;4.70;69.50
24678;DHT22;12800;53.094;8.778;2022-12-10T12:37:48;4.60;70.20
24678;DHT22;12800;53.094;8.778;2022-12-10T12:40:40;4.60;69.50
24678;DHT22;12800;53.094;8.778;2022-12-10T12:43:16;4.60;69.90
24678;DHT22;12800;53.094;8.778;2022-12-10T12:45:45;4.60;70.00
24678;DHT22;12800;53.094;8.778;2022-12-10T12:48:23;4.60;70.30
24678;DHT22;12800;53.094;8.778;2022-12-10T12:51:17;4.60;70.50
24678;DHT22;12800;53.094;8.778;2022-12-10T12:53:44;4.60;70.40
24678;DHT22;12800;53.094;8.778;2022-12-10T12:56:48;4.60;70.50
24678;DHT22;12800;53.094;8.778;2022-12-10T12:59:39;4.60;70.70
24678;DHT22;12800;53.094;8.778;2022-12-10T13:04:42;4.50;70.80
24678;DHT22;12800;53.094;8.778;2022-12-10T13:09:45;4.50;70.70
24678;DHT22;12800;53.094;8.778;2022-12-10T13:17:37;4.40;70.90
24678;DHT22;12800;53.094;8.778;2022-12-10T13:20:35;4.40;71.20
24678;DHT22;12800;53.094;8.778;2022-12-10T13:25:55;4.40;71.60
24678;DHT22;12800;53.094;8.778;2022-12-10T13:36:20;4.40;71.70
24678;DHT22;12800;53.094;8.778;2022-12-10T13:41:31;4.40;71.90
24678;DHT22;12800;53.094;8.778;2022-12-10T13:47:24;4.40;72.90
24678;DHT22;12800;53.094;8.778;2022-12-10T13:49:59;4.40;72.20
24678;DHT22;12800;53.094;8.778;2022-12-10T13:52:35;4.30;72.20
24678;DHT22;12800;53.094;8.778;2022-12-10T14:01:00;4.30;72.20
24678;DHT22;12800;53.094;8.778;2022-12-10T14:06:19;4.30;72.20
24678;DHT22;12800;53.094;8.778;2022-12-10T14:11:38;4.30;72.10
24678;DHT22;12800;53.094;8.778;2022-12-10T14:14:11;4.30;72.00
24678;DHT22;12800;53.094;8.778;2022-12-10T14:16:39;4.30;72.00
24678;DHT22;12800;53.094;8.778;2022-12-10T14:19:11;4.30;72.10
24678;DHT22;12800;53.094;8.778;2022-12-10T14:21:39;4.30;72.40
24678;DHT22;12800;53.094;8.778;2022-12-10T14:24:34;4.30;72.50
24678;DHT22;12800;53.094;8.778;2022-12-10T14:29:49;4.20;72.30
24678;DHT22;12800;53.094;8.778;2022-12-10T14:32:17;4.20;72.30
24678;DHT22;12800;53.094;8.778;2022-12-10T14:34:49;4.10;72.30
24678;DHT22;12800;53.094;8.778;2022-12-10T14:37:16;4.10;72.50
24678;DHT22;12800;53.094;8.778;2022-12-10T14:39:43;4.10;72.70
24678;DHT22;12800;53.094;8.778;2022-12-10T14:42:14;4.10;72.70
24678;DHT22;12800;53.094;8.778;2022-12-10T14:44:41;4.10;72.80
24678;DHT22;12800;53.094;8.778;2022-12-10T14:47:16;4.10;72.70
24678;DHT22;12800;53.094;8.778;2022-12-10T14:49:44;4.10;72.50
24678;DHT22;12800;53.094;8.778;2022-12-10T14:52:16;4.00;72.50
24678;DHT22;12800;53.094;8.778;2022-12-10T14:54:43;4.00;72.50
24678;DHT22;12800;53.094;8.778;2022-12-10T14:57:18;4.00;72.40
24678;DHT22;12800;53.094;8.778;2022-12-10T15:02:24;4.00;72.40
24678;DHT22;12800;53.094;8.778;2022-12-10T15:04:52;4.00;72.40
24678;DHT22;12800;53.094;8.778;2022-12-10T15:07:21;4.00;72.60
24678;DHT22;12800;53.094;8.778;2022-12-10T15:09:49;4.00;72.70
24678;DHT22;12800;53.094;8.778;2022-12-10T15:14:49;4.00;73.10
24678;DHT22;12800;53.094;8.778;2022-12-10T15:17:37;4.00;73.20
24678;DHT22;12800;53.094;8.778;2022-12-10T15:20:16;4.00;73.40
24678;DHT22;12800;53.094;8.778;2022-12-10T15:22:43;4.00;73.40
24678;DHT22;12800;53.094;8.778;2022-12-10T15:25:41;4.00;73.50
24678;DHT22;12800;53.094;8.778;2022-12-10T15:28:37;4.00;73.50
24678;DHT22;12800;53.094;8.778;2022-12-10T15:34:11;4.00;73.60
24678;DHT22;12800;53.094;8.778;2022-12-10T15:36:49;4.00;73.70
24678;DHT22;12800;53.094;8.778;2022-12-10T15:42:45;3.90;73.80
24678;DHT22;12800;53.094;8.778;2022-12-10T15:45:37;3.90;73.90
24678;DHT22;12800;53.094;8.778;2022-12-10T15:48:10;3.90;74.10
24678;DHT22;12800;53.094;8.778;2022-12-10T15:50:37;3.90;74.20
24678;DHT22;12800;53.094;8.778;2022-12-10T15:53:03;3.90;74.20
24678;DHT22;12800;53.094;8.778;2022-12-10T15:55:30;3.90;74.40
24678;DHT22;12800;53.094;8.778;2022-12-10T15:57:56;3.80;74.30
24678;DHT22;12800;53.094;8.778;2022-12-10T16:00:23;3.80;74.50
24678;DHT22;12800;53.094;8.778;2022-12-10T16:02:58;3.70;74.70
24678;DHT22;12800;53.094;8.778;2022-12-10T16:05:35;3.70;74.90
24678;DHT22;12800;53.094;8.778;2022-12-10T16:08:25;3.70;75.00
24678;DHT22;12800;53.094;8.778;2022-12-10T16:10:54;3.70;75.00
24678;DHT22;12800;53.094;8.778;2022-12-10T16:13:23;3.60;75.10
24678;DHT22;12800;53.094;8.778;2022-12-10T16:16:00;3.60;75.10
24678;DHT22;12800;53.094;8.778;2022-12-10T16:18:27;3.60;75.30
24678;DHT22;12800;53.094;8.778;2022-12-10T16:20:52;3.60;75.40
24678;DHT22;12800;53.094;8.778;2022-12-10T16:23:18;3.50;75.50
24678;DHT22;12800;53.094;8.778;2022-12-10T16:25:44;3.50;75.70
24678;DHT22;12800;53.094;8.778;2022-12-10T16:28:16;3.50;75.80
24678;DHT22;12800;53.094;8.778;2022-12-10T16:30:46;3.50;75.80
24678;DHT22;12800;53.094;8.778;2022-12-10T16:33:15;3.50;75.90
24678;DHT22;12800;53.094;8.778;2022-12-10T16:35:41;3.40;76.00
24678;DHT22;12800;53.094;8.778;2022-12-10T16:38:07;3.40;76.20
24678;DHT22;12800;53.094;8.778;2022-12-10T16:40:34;3.40;76.40
24678;DHT22;12800;53.094;8.778;2022-12-10T16:43:00;3.40;77.10
24678;DHT22;12800;53.094;8.778;2022-12-10T16:45:35;3.40;76.60
24678;DHT22;12800;53.094;8.778;2022-12-10T16:48:01;3.40;76.40
24678;DHT22;12800;53.094;8.778;2022-12-10T16:50:27;3.40;76.20
24678;DHT22;12800;53.094;8.778;2022-12-10T16:52:54;3.40;76.20
24678;DHT22;12800;53.094;8.778;2022-12-10T16:55:22;3.40;76.30
24678;DHT22;12800;53.094;8.778;2022-12-10T16:57:49;3.40;76.40
24678;DHT22;12800;53.094;8.778;2022-12-10T17:00:18;3.40;76.50
24678;DHT22;12800;53.094;8.778;2022-12-10T17:02:45;3.30;76.40
24678;DHT22;12800;53.094;8.778;2022-12-10T17:05:40;3.30;76.50
24678;DHT22;12800;53.094;8.778;2022-12-10T17:08:07;3.30;76.60
24678;DHT22;12800;53.094;8.778;2022-12-10T17:10:33;3.30;76.70
24678;DHT22;12800;53.094;8.778;2022-12-10T17:13:17;3.30;76.70
24678;DHT22;12800;53.094;8.778;2022-12-10T17:15:47;3.30;76.70
24678;DHT22;12800;53.094;8.778;2022-12-10T17:18:15;3.30;76.60
24678;DHT22;12800;53.094;8.778;2022-12-10T17:20:45;3.30;76.70
24678;DHT22;12800;53.094;8.778;2022-12-10T17:23:11;3.30;76.80
24678;DHT22;12800;53.094;8.778;2022-12-10T17:25:38;3.30;76.80
24678;DHT22;12800;53.094;8.778;2022-12-10T17:28:04;3.30;76.90
24678;DHT22;12800;53.094;8.778;2022-12-10T17:30:30;3.30;76.80
24678;DHT22;12800;53.094;8.778;2022-12-10T17:32:56;3.30;76.80
24678;DHT22;12800;53.094;8.778;2022-12-10T17:35:21;3.30;76.70
24678;DHT22;12800;53.094;8.778;2022-12-10T17:37:47;3.40;76.60
24678;DHT22;12800;53.094;8.778;2022-12-10T17:40:20;3.40;76.70
24678;DHT22;12800;53.094;8.778;2022-12-10T17:42:46;3.30;76.50
24678;DHT22;12800;53.094;8.778;2022-12-10T17:45:13;3.30;76.70
24678;DHT22;12800;53.094;8.778;2022-12-10T17:47:39;3.30;76.70
24678;DHT22;12800;53.094;8.778;2022-12-10T17:50:21;3.30;76.80
24678;DHT22;12800;53.094;8.778;2022-12-10T17:52:48;3.30;76.80
24678;DHT22;12800;53.094;8.778;2022-12-10T17:55:14;3.30;76.80
24678;DHT22;12800;53.094;8.778;2022-12-10T17:57:39;3.30;76.90
24678;DHT22;12800;53.094;8.778;2022-12-10T18:00:11;3.30;77.00
24678;DHT22;12800;53.094;8.778;2022-12-10T18:02:38;3.30;77.00
24678;DHT22;12800;53.094;8.778;2022-12-10T18:05:04;3.30;77.10